Time;durP1;ratioP1;P1;durP2;ratioP2;P2;SDS_P1;SDS_P2;PMS_P1;PMS_P2;Temp;Humidity;BMP_temperature;BMP_pressure;BME280_temperature;BME280_humidity;BME280_pressure;Samples;Min_cycle;Max_cycle;Signal;HPM_P1;HPM_P2
2023/06/21 00:01:41;;;;;;;3.97;2.92;;;;;;;20.86;78.99;100750.19;5037248;28;20092;-64
2023/06/21 00:04:06;;;;;;;4.13;3.05;;;;;;;20.83;78.97;100750.34;5033574;28;20037;-63
2023/06/21 00:06:34;;;;;;;3.05;2.38;;;;;;;20.81;79.40;100757.47;5031407;28;20021;-64
2023/06/21 00:09:00;;;;;;;3.78;2.80;;;;;;;20.78;79.42;100747.13;5034033;28;20036;-64
2023/06/21 00:11:25;;;;;;;3.88;2.85;;;;;;;20.76;79.66;100757.69;5032356;28;20479;-64
2023/06/21 00:13:54;;;;;;;3.78;3.20;;;;;;;20.75;79.71;100755.16;5022152;28;20091;-64
2023/06/21 00:16:20;;;;;;;4.85;3.17;;;;;;;20.74;79.50;100753.44;5035176;28;20064;-64
2023/06/21 00:18:45;;;;;;;4.22;3.13;;;;;;;20.76;79.34;100759.47;5033053;28;20147;-64
2023/06/21 00:21:11;;;;;;;5.07;3.03;;;;;;;20.76;79.17;100762.94;5030710;28;20117;-64
2023/06/21 00:23:36;;;;;;;4.22;2.88;;;;;;;20.76;79.05;100760.31;5032763;28;20131;-64
2023/06/21 00:26:01;;;;;;;3.28;2.72;;;;;;;20.74;79.20;100750.81;5035789;28;20037;-64
2023/06/21 00:28:27;;;;;;;4.68;3.03;;;;;;;20.74;79.19;100745.56;5035161;28;20208;-63
2023/06/21 00:30:52;;;;;;;5.10;3.13;;;;;;;20.72;79.35;100753.50;5042409;28;20219;-64
2023/06/21 00:33:18;;;;;;;4.82;3.20;;;;;;;20.72;79.49;100755.31;5034678;28;20460;-64
2023/06/21 00:35:43;;;;;;;6.65;3.30;;;;;;;20.70;79.54;100755.38;5030665;28;20029;-64
2023/06/21 00:38:12;;;;;;;4.50;3.47;;;;;;;20.69;79.16;100746.63;5027560;28;20047;-64
2023/06/21 00:40:40;;;;;;;5.13;3.00;;;;;;;20.67;79.21;100752.88;5035558;28;20057;-64
2023/06/21 00:43:06;;;;;;;4.88;3.10;;;;;;;20.65;79.13;100752.09;5037905;28;20067;-63
2023/06/21 00:45:39;;;;;;;4.18;2.85;;;;;;;20.62;79.50;100765.38;5035575;28;20490;-64
2023/06/21 00:48:05;;;;;;;3.78;3.17;;;;;;;20.59;79.91;100768.16;5034069;28;20108;-64
2023/06/21 00:50:30;;;;;;;4.97;3.03;;;;;;;20.55;79.88;100783.22;5030286;28;22023;-64
2023/06/21 00:52:56;;;;;;;5.85;3.00;;;;;;;20.51;80.09;100784.28;5033059;28;20049;-64
2023/06/21 00:55:23;;;;;;;3.63;2.72;;;;;;;20.50;80.27;100784.38;5032237;28;20074;-63
2023/06/21 00:57:53;;;;;;;3.60;2.72;;;;;;;20.47;80.37;100788.00;5034096;28;20072;-64
2023/06/21 01:00:21;;;;;;;4.28;3.20;;;;;;;20.45;80.21;100794.25;5033813;28;20671;-64
2023/06/21 01:02:48;;;;;;;5.35;3.03;;;;;;;20.46;80.25;100799.41;5031022;28;20025;-64
2023/06/21 01:05:16;;;;;;;4.13;3.45;;;;;;;20.42;80.65;100810.97;5030175;28;20116;-64
2023/06/21 01:07:45;;;;;;;5.63;2.90;;;;;;;20.40;80.99;100815.47;5035189;28;20059;-63
2023/06/21 01:10:28;;;;;;;5.15;3.10;;;;;;;20.38;80.58;100822.56;5035403;28;20577;-64
2023/06/21 01:12:54;;;;;;;4.05;2.60;;;;;;;20.35;81.02;100827.97;5039602;28;20075;-64
2023/06/21 01:15:24;;;;;;;4.18;2.70;;;;;;;20.34;81.18;100830.66;5046434;28;20060;-64
2023/06/21 01:17:52;;;;;;;4.53;3.05;;;;;;;20.30;81.28;100835.22;5036661;28;20098;-64
2023/06/21 01:20:24;;;;;;;3.78;2.80;;;;;;;20.27;81.29;100827.50;5033999;28;20069;-64
2023/06/21 01:23:15;;;;;;;4.93;3.10;;;;;;;20.26;81.30;100830.16;5036465;28;20041;-63
2023/06/21 01:26:06;;;;;;;3.92;2.97;;;;;;;20.24;81.44;100839.91;5036767;28;20518;-64
2023/06/21 01:28:50;;;;;;;4.03;2.90;;;;;;;20.22;81.36;100841.72;5038515;28;20045;-63
2023/06/21 01:31:16;;;;;;;5.55;3.38;;;;;;;20.22;81.44;100846.97;5023859;28;20044;-63
2023/06/21 01:33:42;;;;;;;3.58;2.95;;;;;;;20.21;81.47;100843.53;5035358;28;20794;-64
2023/06/21 01:36:09;;;;;;;4.15;3.42;;;;;;;20.20;81.78;100839.19;5035754;28;20057;-63
2023/06/21 01:38:35;;;;;;;5.85;3.92;;;;;;;20.17;81.97;100848.06;5035302;28;20037;-63
2023/06/21 01:41:01;;;;;;;5.03;3.17;;;;;;;20.15;82.05;100855.16;5039561;28;20048;-64
2023/06/21 01:43:28;;;;;;;5.50;4.10;;;;;;;20.13;82.25;100861.38;5039243;28;20045;-63
2023/06/21 01:45:54;;;;;;;5.18;3.60;;;;;;;20.11;82.33;100853.59;5037274;28;20048;-63
2023/06/21 01:48:21;;;;;;;5.22;3.58;;;;;;;20.12;82.28;100841.31;5038900;28;20144;-63
2023/06/21 01:50:48;;;;;;;4.38;3.55;;;;;;;20.13;82.42;100845.63;5033616;28;20066;-63
2023/06/21 01:53:15;;;;;;;4.60;3.22;;;;;;;20.13;82.45;100854.38;5035756;28;20041;-63
2023/06/21 01:55:44;;;;;;;4.25;3.15;;;;;;;20.13;82.39;100850.88;5029079;28;20037;-63
2023/06/21 01:58:12;;;;;;;6.45;4.20;;;;;;;20.10;82.63;100848.41;5033482;28;20041;-63
2023/06/21 02:00:38;;;;;;;5.68;4.10;;;;;;;20.10;82.69;100856.28;5038433;28;20037;-64
2023/06/21 02:03:08;;;;;;;5.43;4.30;;;;;;;20.08;83.18;100855.50;5043568;28;20055;-64
2023/06/21 02:05:34;;;;;;;5.38;3.88;;;;;;;20.05;83.15;100858.25;5038857;28;20040;-64
2023/06/21 02:08:01;;;;;;;7.18;3.92;;;;;;;20.00;83.45;100850.63;5036150;28;20111;-63
2023/06/21 02:10:27;;;;;;;5.82;4.13;;;;;;;19.97;83.73;100848.13;5041989;28;20560;-64
2023/06/21 02:12:52;;;;;;;4.65;4.15;;;;;;;19.94;83.53;100857.91;5039640;28;20037;-64
2023/06/21 02:15:19;;;;;;;4.15;3.50;;;;;;;19.90;83.84;100858.97;5037545;28;20074;-64
2023/06/21 02:17:49;;;;;;;4.90;3.83;;;;;;;19.85;84.11;100856.56;5040484;28;20029;-64
2023/06/21 02:20:16;;;;;;;6.10;3.42;;;;;;;19.83;84.15;100850.50;5038904;28;20099;-64
2023/06/21 02:22:42;;;;;;;5.47;4.07;;;;;;;19.79;84.15;100851.59;5040290;28;20064;-64
2023/06/21 02:25:09;;;;;;;6.80;4.05;;;;;;;19.75;84.66;100855.22;5034307;28;20150;-64
2023/06/21 02:27:34;;;;;;;5.45;3.70;;;;;;;19.72;84.68;100868.47;5023717;28;20048;-64
2023/06/21 02:29:59;;;;;;;4.80;3.58;;;;;;;19.69;84.89;100868.59;5039590;28;20028;-64
2023/06/21 02:32:25;;;;;;;4.18;3.60;;;;;;;19.69;85.08;100873.00;5042264;28;20499;-64
2023/06/21 02:34:50;;;;;;;4.85;4.03;;;;;;;19.69;85.19;100878.25;5036877;28;20518;-64
2023/06/21 02:37:15;;;;;;;6.50;4.38;;;;;;;19.68;85.46;100879.19;5041672;28;20124;-64
2023/06/21 02:39:41;;;;;;;5.72;4.22;;;;;;;19.67;85.62;100886.19;5038672;28;20853;-63
2023/06/21 02:42:06;;;;;;;7.35;4.70;;;;;;;19.66;85.68;100894.09;5044593;28;20091;-64
2023/06/21 02:44:31;;;;;;;9.88;4.43;;;;;;;19.62;86.10;100896.88;5039283;28;20045;-64
2023/06/21 02:46:57;;;;;;;6.28;4.65;;;;;;;19.59;86.05;100898.78;5036022;28;20037;-64
2023/06/21 02:49:23;;;;;;;5.68;4.03;;;;;;;19.56;86.27;100893.69;5032525;28;20099;-64
2023/06/21 02:51:50;;;;;;;4.95;4.18;;;;;;;19.52;86.59;100899.97;5037764;28;20044;-63
2023/06/21 02:54:15;;;;;;;6.18;4.07;;;;;;;19.48;86.92;100898.38;5033870;28;20611;-64
2023/06/21 02:56:42;;;;;;;7.15;4.55;;;;;;;19.46;87.28;100897.59;5038238;28;20140;-64
2023/06/21 02:59:08;;;;;;;5.25;4.65;;;;;;;19.45;87.49;100899.38;5039580;28;20063;-64
2023/06/21 03:01:34;;;;;;;4.20;3.70;;;;;;;19.44;87.71;100896.81;5038595;28;20554;-63
2023/06/21 03:03:59;;;;;;;7.88;4.38;;;;;;;19.44;87.88;100907.31;5037371;28;21328;-64
2023/06/21 03:06:25;;;;;;;5.35;4.13;;;;;;;19.43;88.10;100900.34;5036022;28;21755;-63
2023/06/21 03:08:51;;;;;;;4.95;3.97;;;;;;;19.43;87.94;100909.06;5022869;28;20029;-64
2023/06/21 03:11:17;;;;;;;7.35;4.18;;;;;;;19.40;88.28;100908.34;5037063;28;20493;-63
2023/06/21 03:13:43;;;;;;;6.65;4.80;;;;;;;19.39;88.46;100901.38;5037845;28;20127;-63
2023/06/21 03:16:08;;;;;;;6.38;4.45;;;;;;;19.38;88.66;100913.66;5025103;28;20048;-63
2023/06/21 03:18:33;;;;;;;6.05;4.57;;;;;;;19.37;88.50;100914.56;5041232;28;20041;-63
2023/06/21 03:21:02;;;;;;;6.38;4.85;;;;;;;19.36;88.80;100920.72;5016836;28;20029;-63
2023/06/21 03:23:28;;;;;;;5.97;4.00;;;;;;;19.36;88.64;100925.09;5034295;28;20095;-65
2023/06/21 03:25:54;;;;;;;5.07;4.32;;;;;;;19.37;88.54;100932.06;5030979;28;20041;-64
2023/06/21 03:28:19;;;;;;;6.03;4.60;;;;;;;19.38;88.61;100923.28;5029569;28;20128;-64
2023/06/21 03:30:44;;;;;;;5.75;3.90;;;;;;;19.40;88.93;100924.94;5036290;28;20175;-64
2023/06/21 03:33:11;;;;;;;6.30;4.53;;;;;;;19.44;88.32;100929.09;5038281;28;20033;-64
2023/06/21 03:35:36;;;;;;;5.57;3.83;;;;;;;19.49;88.22;100935.03;5034410;28;20052;-64
2023/06/21 03:38:02;;;;;;;5.40;4.10;;;;;;;19.55;88.11;100936.53;5034898;28;20041;-64
2023/06/21 03:40:28;;;;;;;5.03;4.10;;;;;;;19.61;87.71;100936.28;5036250;28;20033;-64
2023/06/21 03:42:53;;;;;;;5.65;3.88;;;;;;;19.66;87.41;100934.31;5037014;28;20067;-64
2023/06/21 03:45:19;;;;;;;6.32;4.53;;;;;;;19.73;86.98;100937.53;5036477;28;20757;-64
2023/06/21 03:47:44;;;;;;;5.18;4.57;;;;;;;19.80;86.46;100946.88;5037469;28;20037;-64
2023/06/21 03:50:11;;;;;;;6.60;4.30;;;;;;;19.88;86.06;100947.38;5032758;28;20557;-64
2023/06/21 03:52:37;;;;;;;5.32;4.28;;;;;;;19.95;85.62;100949.66;5033759;28;20034;-64
2023/06/21 03:55:04;;;;;;;7.10;4.50;;;;;;;20.04;85.04;100946.63;5032240;28;20068;-64
2023/06/21 03:57:29;;;;;;;4.50;3.70;;;;;;;20.11;84.63;100949.84;5036515;28;20033;-64
2023/06/21 03:59:54;;;;;;;5.93;3.88;;;;;;;20.12;84.40;100956.81;5038000;28;20064;-64
2023/06/21 04:02:21;;;;;;;7.63;4.60;;;;;;;20.13;83.91;100948.00;5019177;28;20072;-64
2023/06/21 04:04:47;;;;;;;6.07;3.95;;;;;;;20.17;83.66;100944.31;5035854;28;20040;-64
2023/06/21 04:07:13;;;;;;;4.75;3.97;;;;;;;20.23;83.13;100945.81;5035724;28;20140;-64
2023/06/21 04:09:38;;;;;;;7.43;4.82;;;;;;;20.30;82.67;100937.59;5040481;28;20698;-64
2023/06/21 04:12:04;;;;;;;5.22;4.50;;;;;;;20.39;82.05;100945.06;5036834;28;20028;-64
2023/06/21 04:14:29;;;;;;;4.53;3.60;;;;;;;20.51;81.78;100939.22;5036773;28;20088;-63
2023/06/21 04:16:54;;;;;;;5.95;4.90;;;;;;;20.60;81.58;100943.22;5036520;28;20047;-64
2023/06/21 04:19:20;;;;;;;5.90;4.50;;;;;;;20.67;81.14;100936.72;5034930;28;20804;-64
2023/06/21 04:21:45;;;;;;;5.75;4.00;;;;;;;20.73;80.43;100939.09;5033985;28;20091;-64
2023/06/21 04:24:11;;;;;;;5.15;4.10;;;;;;;20.80;80.48;100937.03;5030459;28;20045;-64
2023/06/21 04:26:36;;;;;;;6.13;4.85;;;;;;;20.86;79.99;100947.25;5030988;28;20040;-64
2023/06/21 04:29:01;;;;;;;7.88;4.85;;;;;;;20.91;79.56;100948.75;5036796;28;20045;-64
2023/06/21 04:31:29;;;;;;;6.28;4.40;;;;;;;20.93;79.75;100952.13;5035697;28;20037;-64
2023/06/21 04:33:55;;;;;;;4.82;4.32;;;;;;;20.95;79.49;100954.72;5038038;28;20102;-64
2023/06/21 04:36:21;;;;;;;7.63;4.97;;;;;;;20.94;79.65;100951.22;5032860;28;20833;-64
2023/06/21 04:38:50;;;;;;;8.10;5.28;;;;;;;20.94;79.65;100968.75;5035546;28;20578;-64
2023/06/21 04:41:19;;;;;;;6.97;4.63;;;;;;;20.90;80.04;100972.47;5036585;28;20564;-64
2023/06/21 04:43:44;;;;;;;8.68;5.20;;;;;;;20.83;80.39;100973.69;5036260;28;20045;-64
2023/06/21 04:46:10;;;;;;;7.65;4.82;;;;;;;20.81;80.77;100972.91;5038072;28;20040;-64
2023/06/21 04:48:37;;;;;;;6.20;5.00;;;;;;;20.88;80.80;100976.94;5034901;28;20059;-64
2023/06/21 04:51:03;;;;;;;5.75;5.10;;;;;;;20.94;80.66;100977.50;5039802;28;20024;-64
2023/06/21 04:53:29;;;;;;;10.30;5.38;;;;;;;21.04;80.14;100963.00;5046370;28;20043;-64
2023/06/21 04:55:57;;;;;;;8.38;6.10;;;;;;;21.17;79.42;100976.38;5037676;28;20041;-64
2023/06/21 04:58:23;;;;;;;8.25;5.43;;;;;;;21.23;78.82;100982.19;5039448;28;20072;-64
2023/06/21 05:00:48;;;;;;;8.43;5.90;;;;;;;21.31;78.14;100979.22;5040015;28;20038;-64
2023/06/21 05:03:14;;;;;;;7.10;4.95;;;;;;;21.39;77.83;100981.44;5043249;28;20041;-64
2023/06/21 05:05:39;;;;;;;5.55;4.95;;;;;;;21.52;77.32;100990.44;5031275;28;20414;-64
2023/06/21 05:08:04;;;;;;;6.68;5.32;;;;;;;21.67;77.15;100993.19;5041792;28;20409;-64
2023/06/21 05:10:30;;;;;;;7.82;5.60;;;;;;;21.80;76.42;100988.16;5042153;28;20040;-64
2023/06/21 05:12:55;;;;;;;7.93;5.65;;;;;;;21.92;76.22;100987.53;5040897;28;20041;-63
2023/06/21 05:15:21;;;;;;;5.35;4.50;;;;;;;22.04;75.87;100989.53;5034115;28;20056;-64
2023/06/21 05:17:46;;;;;;;8.48;5.53;;;;;;;22.14;75.83;100984.63;5038333;28;20037;-64
2023/06/21 05:20:12;;;;;;;7.45;6.10;;;;;;;22.20;74.81;100979.91;5014880;28;20040;-64
2023/06/21 05:22:37;;;;;;;8.20;5.22;;;;;;;22.39;74.71;100990.31;5036906;28;20107;-64
2023/06/21 05:25:04;;;;;;;10.00;5.85;;;;;;;22.61;73.84;100982.97;5040302;28;20522;-64
2023/06/21 05:27:30;;;;;;;6.75;5.55;;;;;;;22.81;73.35;100988.00;5050982;28;20036;-64
2023/06/21 05:29:55;;;;;;;8.45;5.90;;;;;;;22.95;72.61;100987.22;5039543;28;20231;-64
2023/06/21 05:32:21;;;;;;;6.50;5.35;;;;;;;23.05;71.54;100985.78;5046651;28;20142;-64
2023/06/21 05:34:47;;;;;;;8.18;5.25;;;;;;;23.15;71.33;100992.25;5048044;28;20052;-64
2023/06/21 05:37:12;;;;;;;7.78;5.68;;;;;;;23.14;70.84;100993.16;5039756;28;20041;-64
2023/06/21 05:39:38;;;;;;;5.80;5.20;;;;;;;23.11;71.07;101000.41;5043131;28;20173;-65
2023/06/21 05:42:03;;;;;;;10.10;6.45;;;;;;;23.14;71.25;101005.50;5026036;28;20131;-64
2023/06/21 05:44:29;;;;;;;9.75;6.68;;;;;;;23.31;70.13;100995.72;5042916;28;20040;-64
2023/06/21 05:46:54;;;;;;;8.73;5.68;;;;;;;23.47;69.79;101000.13;5043913;28;20137;-64
2023/06/21 05:49:20;;;;;;;6.80;5.57;;;;;;;23.43;69.71;101002.94;5037691;28;20032;-63
2023/06/21 05:51:45;;;;;;;8.15;6.22;;;;;;;23.46;69.33;101004.53;5037585;28;20039;-64
2023/06/21 05:54:10;;;;;;;6.90;5.57;;;;;;;23.60;69.25;101011.69;5040630;28;20051;-64
2023/06/21 05:56:38;;;;;;;8.57;5.85;;;;;;;23.66;68.84;101008.69;5038280;28;20066;-64
2023/06/21 05:59:04;;;;;;;9.10;5.97;;;;;;;23.61;68.69;101021.28;5030349;28;20092;-64
2023/06/21 06:01:30;;;;;;;9.88;5.93;;;;;;;23.58;68.85;101016.16;5038864;28;20124;-63
2023/06/21 06:03:55;;;;;;;7.28;5.55;;;;;;;23.65;68.67;101020.16;5037482;28;20079;-65
2023/06/21 06:06:20;;;;;;;8.70;6.00;;;;;;;23.67;68.78;101013.84;5036360;28;20063;-64
2023/06/21 06:08:46;;;;;;;8.57;5.65;;;;;;;23.70;68.72;101020.75;5035231;28;20033;-64
2023/06/21 06:11:11;;;;;;;8.27;5.60;;;;;;;23.75;68.69;101021.34;5038329;28;20756;-63
2023/06/21 06:13:37;;;;;;;7.90;5.85;;;;;;;23.81;68.03;101008.59;5040194;28;20044;-64
2023/06/21 06:16:02;;;;;;;7.25;5.82;;;;;;;23.92;67.85;101008.00;5040054;28;20036;-64
2023/06/21 06:18:27;;;;;;;6.53;5.55;;;;;;;23.88;67.39;101001.19;5018303;28;20160;-64
2023/06/21 06:20:53;;;;;;;7.65;6.07;;;;;;;23.79;67.35;101012.28;5034191;28;20391;-64
2023/06/21 06:23:19;;;;;;;11.20;5.72;;;;;;;23.68;68.06;101027.91;5032708;28;20136;-64
2023/06/21 06:25:44;;;;;;;7.00;6.15;;;;;;;23.61;68.21;101031.84;5033806;28;20075;-64
2023/06/21 06:28:10;;;;;;;8.07;5.70;;;;;;;23.56;68.59;101037.38;5036137;28;20124;-64
2023/06/21 06:30:35;;;;;;;9.23;6.07;;;;;;;23.62;68.29;101041.47;5013531;28;20037;-64
2023/06/21 06:33:00;;;;;;;7.25;6.28;;;;;;;23.63;68.74;101036.06;5038193;28;20048;-64
2023/06/21 06:35:27;;;;;;;8.07;5.95;;;;;;;23.69;68.57;101045.47;5034793;28;20037;-63
2023/06/21 06:37:52;;;;;;;6.68;5.97;;;;;;;23.80;68.39;101043.03;5034938;28;20033;-64
2023/06/21 06:40:18;;;;;;;9.85;5.97;;;;;;;23.84;67.98;101037.47;5035297;28;20033;-64
2023/06/21 06:42:43;;;;;;;11.38;5.95;;;;;;;23.89;67.58;101045.13;5035253;28;20036;-64
2023/06/21 06:45:09;;;;;;;10.23;6.35;;;;;;;23.94;67.01;101041.31;5023592;28;20558;-64
2023/06/21 06:47:34;;;;;;;10.15;6.20;;;;;;;24.04;67.41;101038.13;5019368;28;20045;-63
2023/06/21 06:50:04;;;;;;;8.82;5.72;;;;;;;24.13;67.18;101043.72;5034404;28;20041;-64
2023/06/21 06:52:29;;;;;;;9.60;5.65;;;;;;;24.23;66.77;101036.91;5016657;28;20183;-63
2023/06/21 06:54:55;;;;;;;8.25;6.00;;;;;;;24.27;66.43;101045.50;5033675;28;20037;-64
2023/06/21 06:57:20;;;;;;;7.05;5.90;;;;;;;24.31;66.02;101042.56;5035845;28;20041;-64
2023/06/21 06:59:45;;;;;;;10.02;5.78;;;;;;;24.30;65.71;101038.25;5034625;28;20026;-64
2023/06/21 07:02:11;;;;;;;9.73;5.50;;;;;;;24.29;66.15;101047.13;5033349;28;20045;-64
2023/06/21 07:04:36;;;;;;;8.27;5.85;;;;;;;24.29;65.72;101036.53;5016607;28;20120;-64
2023/06/21 07:07:02;;;;;;;6.80;5.28;;;;;;;24.35;65.84;101053.81;5034048;28;20044;-65
2023/06/21 07:09:27;;;;;;;8.00;5.38;;;;;;;24.35;65.30;101038.81;5033257;28;20033;-64
2023/06/21 07:11:56;;;;;;;7.95;5.50;;;;;;;24.39;65.53;101044.78;5035416;28;20382;-64
2023/06/21 07:14:23;;;;;;;5.43;4.53;;;;;;;24.42;65.88;101041.94;5038196;28;20047;-64
2023/06/21 07:16:49;;;;;;;13.43;5.30;;;;;;;24.45;65.67;101042.59;5038943;28;20577;-64
2023/06/21 07:19:15;;;;;;;6.72;5.50;;;;;;;24.50;64.85;101034.38;5035128;28;20160;-64
2023/06/21 07:21:40;;;;;;;6.40;4.85;;;;;;;24.55;64.04;101032.31;5042135;28;20033;-64
2023/06/21 07:24:05;;;;;;;7.18;5.65;;;;;;;24.53;63.54;101035.03;4999556;28;20123;-63
2023/06/21 07:26:31;;;;;;;6.30;5.50;;;;;;;24.60;63.96;101043.44;5035021;28;20096;-64
2023/06/21 07:28:57;;;;;;;6.80;5.40;;;;;;;24.60;63.85;101037.31;5012831;28;20044;-65
2023/06/21 07:31:22;;;;;;;6.22;5.15;;;;;;;24.66;63.48;101045.72;5040082;28;20037;-65
2023/06/21 07:33:48;;;;;;;7.63;5.35;;;;;;;24.73;63.50;101052.34;5036258;28;20154;-65
2023/06/21 07:36:13;;;;;;;6.85;4.82;;;;;;;24.90;62.78;101030.13;5032792;28;20692;-65
2023/06/21 07:38:38;;;;;;;7.45;4.50;;;;;;;24.93;62.07;101029.94;5010708;28;20090;-65
2023/06/21 07:41:04;;;;;;;4.18;3.67;;;;;;;25.07;61.16;101032.56;5030715;28;20040;-65
2023/06/21 07:43:29;;;;;;;6.03;4.57;;;;;;;25.12;61.40;101025.16;5033884;28;20041;-65
2023/06/21 07:45:55;;;;;;;7.63;4.95;;;;;;;25.30;60.96;101021.31;5036203;28;20051;-65
2023/06/21 07:48:20;;;;;;;7.45;4.68;;;;;;;25.54;60.77;101017.09;5038731;28;20029;-67
2023/06/21 07:50:46;;;;;;;7.20;5.38;;;;;;;25.72;60.23;101017.66;5036201;28;20117;-66
2023/06/21 07:53:11;;;;;;;8.85;5.30;;;;;;;25.77;59.57;100996.19;5034792;28;20045;-68
2023/06/21 07:55:36;;;;;;;6.22;5.47;;;;;;;25.82;59.53;101004.66;5029291;28;20040;-68
2023/06/21 07:58:02;;;;;;;7.60;5.43;;;;;;;25.84;60.30;101018.66;5035393;28;20045;-68
2023/06/21 08:00:27;;;;;;;7.38;6.13;;;;;;;25.68;60.00;101010.06;5035938;28;20044;-67
2023/06/21 08:02:53;;;;;;;6.85;5.72;;;;;;;25.55;59.92;101016.16;5032114;28;20743;-68
2023/06/21 08:05:19;;;;;;;5.80;5.05;;;;;;;25.51;61.22;101038.47;5034353;28;20602;-67
2023/06/21 08:07:44;;;;;;;8.57;5.28;;;;;;;25.48;60.39;101016.66;5033186;28;20033;-68
2023/06/21 08:10:11;;;;;;;5.75;5.05;;;;;;;25.49;59.91;101027.16;5002669;28;20132;-68
2023/06/21 08:12:36;;;;;;;6.60;4.80;;;;;;;25.57;59.87;101018.69;5034660;28;20072;-68
2023/06/21 08:15:02;;;;;;;7.90;5.80;;;;;;;25.64;60.42;101027.94;5035922;28;20656;-68
2023/06/21 08:17:28;;;;;;;6.90;5.20;;;;;;;25.68;59.93;101013.53;5035710;28;20068;-68
2023/06/21 08:19:53;;;;;;;7.20;5.63;;;;;;;25.80;59.38;101003.94;5031275;28;20391;-69
2023/06/21 08:22:18;;;;;;;7.30;4.57;;;;;;;26.05;58.32;100990.69;5030013;28;20703;-67
2023/06/21 08:24:44;;;;;;;8.50;5.45;;;;;;;26.24;57.70;100977.91;5027042;28;20477;-68
2023/06/21 08:27:10;;;;;;;7.90;4.28;;;;;;;26.43;57.34;100975.66;5035962;28;20457;-68
2023/06/21 08:29:35;;;;;;;5.30;4.53;;;;;;;26.54;57.45;100974.91;5017944;28;20128;-68
2023/06/21 08:32:00;;;;;;;8.10;5.13;;;;;;;26.68;56.91;100975.59;5036610;28;20078;-68
2023/06/21 08:34:26;;;;;;;5.57;4.35;;;;;;;26.78;55.37;100946.63;5033994;28;20053;-68
2023/06/21 08:36:51;;;;;;;7.00;4.20;;;;;;;26.97;55.09;100952.28;5034440;28;20041;-67
2023/06/21 08:39:16;;;;;;;4.50;4.05;;;;;;;27.20;53.37;100930.19;5036163;28;20068;-65
2023/06/21 08:41:43;;;;;;;6.32;4.82;;;;;;;27.20;52.52;100927.53;5036836;28;20035;-67
2023/06/21 08:44:08;;;;;;;9.55;4.38;;;;;;;27.10;52.34;100934.53;5033884;28;20574;-67
2023/06/21 08:46:35;;;;;;;6.93;4.38;;;;;;;27.14;52.88;100949.22;5034437;28;20045;-68
2023/06/21 08:49:04;;;;;;;5.82;4.25;;;;;;;27.02;53.08;100949.28;5029935;28;20044;-68
2023/06/21 08:51:35;;;;;;;6.40;4.88;;;;;;;26.86;53.82;100978.78;5033647;28;20498;-67
2023/06/21 08:54:05;;;;;;;6.65;4.75;;;;;;;26.72;54.97;100985.00;5031635;28;20036;-68
2023/06/21 08:56:35;;;;;;;6.25;5.10;;;;;;;26.63;55.56;100996.28;5032173;28;20083;-68
2023/06/21 08:59:06;;;;;;;5.15;4.47;;;;;;;26.54;56.27;101010.19;5034771;28;20124;-68
2023/06/21 09:01:41;;;;;;;4.82;4.25;;;;;;;26.47;55.95;101000.13;5033825;28;20115;-68
2023/06/21 09:04:09;;;;;;;8.82;5.05;;;;;;;26.67;54.87;100978.34;5033913;28;20040;-68
2023/06/21 09:06:35;;;;;;;5.28;4.65;;;;;;;27.04;54.29;100965.97;5037111;28;20040;-68
2023/06/21 09:09:00;;;;;;;7.47;4.13;;;;;;;27.10;52.68;100944.28;5038334;28;20088;-68
2023/06/21 09:11:26;;;;;;;5.78;4.63;;;;;;;27.44;52.55;100946.09;5039029;28;20043;-68
2023/06/21 09:13:53;;;;;;;5.28;4.75;;;;;;;27.77;52.16;100948.88;5041419;28;20037;-68
2023/06/21 09:16:19;;;;;;;7.80;4.88;;;;;;;28.19;51.35;100927.91;5038623;28;20096;-68
2023/06/21 09:18:45;;;;;;;5.47;4.18;;;;;;;28.52;50.37;100919.91;5037334;28;20055;-68
2023/06/21 09:21:11;;;;;;;4.30;3.90;;;;;;;28.82;50.00;100911.28;5029764;28;20025;-68
2023/06/21 09:23:39;;;;;;;5.25;4.25;;;;;;;29.09;47.39;100877.09;5024055;28;20052;-68
2023/06/21 09:26:05;;;;;;;6.10;3.83;;;;;;;29.21;47.90;100899.16;5032317;28;20045;-68
2023/06/21 09:28:31;;;;;;;6.05;4.70;;;;;;;28.94;48.27;100917.44;5032823;28;20036;-64
2023/06/21 09:30:56;;;;;;;6.47;3.90;;;;;;;28.51;49.32;100942.16;5042556;28;20045;-63
2023/06/21 09:33:24;;;;;;;4.85;4.30;;;;;;;28.08;50.63;100967.75;5039406;28;20406;-64
2023/06/21 09:35:50;;;;;;;7.38;4.65;;;;;;;27.72;51.12;100980.28;5037480;28;20389;-64
2023/06/21 09:38:33;;;;;;;4.88;4.20;;;;;;;27.55;51.30;100985.16;5038774;28;20037;-64
2023/06/21 09:41:02;;;;;;;8.13;4.13;;;;;;;27.55;51.41;100990.47;5038239;28;20216;-64
2023/06/21 09:43:27;;;;;;;5.22;4.45;;;;;;;27.70;50.77;100976.84;5040197;28;20151;-63
2023/06/21 09:45:59;;;;;;;4.75;4.25;;;;;;;27.80;50.62;100975.19;5044751;28;20470;-64
2023/06/21 09:48:25;;;;;;;8.25;4.63;;;;;;;28.13;49.96;100968.28;5042388;28;20024;-64
2023/06/21 09:50:53;;;;;;;5.00;4.45;;;;;;;28.34;48.95;100955.97;5031662;28;20064;-63
2023/06/21 09:53:24;;;;;;;6.15;4.85;;;;;;;28.71;49.38;100961.81;5042460;28;20036;-63
2023/06/21 09:55:50;;;;;;;8.18;4.30;;;;;;;28.69;47.80;100942.50;5039747;28;20033;-64
2023/06/21 09:58:15;;;;;;;9.60;4.68;;;;;;;28.79;47.78;100957.63;5040410;28;20154;-64
2023/06/21 10:00:42;;;;;;;6.82;4.57;;;;;;;28.77;47.83;100959.56;5030766;28;20144;-64
2023/06/21 10:03:08;;;;;;;5.25;4.18;;;;;;;28.74;47.62;100956.28;5036435;28;20033;-63
2023/06/21 10:05:34;;;;;;;4.38;3.95;;;;;;;28.79;47.97;100962.97;5034745;28;20040;-63
2023/06/21 10:07:59;;;;;;;6.60;4.05;;;;;;;28.86;46.87;100937.50;5037208;28;20056;-63
2023/06/21 10:10:25;;;;;;;4.75;3.58;;;;;;;28.81;46.67;100939.72;5036340;28;20574;-63
2023/06/21 10:12:54;;;;;;;5.65;3.85;;;;;;;28.92;46.56;100938.81;5036608;28;20041;-62
2023/06/21 10:15:19;;;;;;;4.82;4.22;;;;;;;28.99;46.23;100939.19;5036131;28;20029;-61
2023/06/21 10:17:46;;;;;;;5.15;4.07;;;;;;;29.04;46.30;100943.16;5036248;28;20079;-61
2023/06/21 10:20:14;;;;;;;7.45;4.43;;;;;;;29.35;45.74;100930.84;5033217;28;20037;-61
2023/06/21 10:22:40;;;;;;;6.25;4.22;;;;;;;29.62;45.10;100925.84;5033369;28;20107;-61
2023/06/21 10:25:06;;;;;;;5.10;3.95;;;;;;;30.07;44.44;100921.06;5032027;28;20075;-61
2023/06/21 10:27:34;;;;;;;5.93;4.28;;;;;;;30.44;43.95;100900.84;5035168;28;20717;-61
2023/06/21 10:30:01;;;;;;;4.38;3.42;;;;;;;30.82;43.32;100897.41;5030633;28;20041;-61
2023/06/21 10:32:27;;;;;;;4.57;4.03;;;;;;;30.79;43.18;100903.03;5037262;28;20033;-61
2023/06/21 10:35:15;;;;;;;6.18;4.22;;;;;;;30.92;42.18;100900.94;5034355;28;20052;-61
2023/06/21 10:37:48;;;;;;;5.78;4.43;;;;;;;30.74;42.47;100907.09;5033919;28;20037;-61
2023/06/21 10:40:14;;;;;;;4.67;4.10;;;;;;;30.21;42.34;100909.19;5031294;28;20401;-62
2023/06/21 10:42:41;;;;;;;5.53;3.72;;;;;;;29.75;43.67;100928.28;5032199;28;20044;-61
2023/06/21 10:45:09;;;;;;;5.70;4.15;;;;;;;29.59;44.37;100943.91;5037928;28;20047;-61
2023/06/21 10:47:36;;;;;;;4.15;3.75;;;;;;;29.58;44.24;100950.19;5034359;28;20040;-61
2023/06/21 10:50:02;;;;;;;4.75;3.90;;;;;;;29.59;45.13;100955.41;5035333;28;20045;-62
2023/06/21 10:52:29;;;;;;;6.13;4.07;;;;;;;29.59;45.23;100958.06;5034767;28;20549;-61
2023/06/21 10:54:58;;;;;;;5.70;4.15;;;;;;;29.66;45.33;100961.88;5030652;28;20148;-61
2023/06/21 10:57:26;;;;;;;6.25;4.00;;;;;;;29.84;45.39;100967.47;5037788;28;20108;-62
2023/06/21 10:59:54;;;;;;;3.95;3.55;;;;;;;30.08;44.68;100959.22;5022119;28;20027;-61
2023/06/21 11:02:19;;;;;;;4.70;3.97;;;;;;;30.14;44.74;100959.53;5038572;28;20245;-61
2023/06/21 11:05:22;;;;;;;7.78;4.22;;;;;;;29.92;44.72;100960.53;5032508;28;20582;-61
2023/06/21 11:07:57;;;;;;;5.60;4.20;;;;;;;29.38;45.50;100976.69;5035703;28;21005;-61
2023/06/21 11:10:30;;;;;;;5.80;3.70;;;;;;;29.17;46.38;100989.09;5035365;28;20036;-61
2023/06/21 11:12:56;;;;;;;5.43;4.18;;;;;;;29.11;46.40;101007.38;5036515;28;20041;-62
2023/06/21 11:15:24;;;;;;;6.30;5.25;;;;;;;29.05;47.54;101024.69;5035251;28;20029;-61
2023/06/21 11:18:01;;;;;;;8.80;5.82;;;;;;;28.97;48.22;101042.28;5036770;28;20083;-62
2023/06/21 11:20:27;;;;;;;8.38;6.07;;;;;;;28.92;48.95;101045.28;5036702;28;20043;-62
2023/06/21 11:22:57;;;;;;;8.40;5.63;;;;;;;28.44;49.55;101062.44;5034181;28;20135;-61